Aviation Digital Data Service (ADDS)

Output produced by METARs form (1439 UTC 24 July 2017)
found at http://www.aviationweather.gov/adds/metars/
 
KDUJ 241436Z AUTO 26009KT 9SM SCT008 BKN020 OVC038 21/18 A2986 RMK AO2 T02110183
KDUJ 241353Z AUTO 23007KT 7SM BKN007 OVC026 21/19 A2986 RMK AO2 CIG 005V012 SLP102 T02060189
KDUJ 241312Z AUTO 24008KT 4SM BR OVC005 19/18 A2987 RMK AO2 CIG 003V008 T01940183
KDUJ 241253Z AUTO 24007KT 4SM BR BKN004 OVC008 19/18 A2987 RMK AO2 CIG 002V005 SLP102 T01940183
KDUJ 241250Z AUTO 23007KT 3SM BR OVC002 19/18 A2987 RMK AO2 CIG 002V007
KDUJ 241242Z AUTO 23006KT 2 1/2SM BR OVC002 19/18 A2986 RMK AO2 T01940183
KDUJ 241203Z AUTO 27006KT 1 1/4SM BR OVC002 19/18 A2986 RMK AO2 T01890178
KDUJ 241153Z AUTO 25006KT 3/4SM BR OVC002 19/18 A2986 RMK AO2 SLP099 60001 70063 T01890178 10189 20172 51011
KDUJ 241150Z AUTO 26005KT 3/4SM BR OVC002 19/18 A2986 RMK AO2
KDUJ 241053Z AUTO 24007KT 1/4SM FG VV002 18/17 A2985 RMK AO2 SLP094 T01830172
KDUJ 241036Z AUTO 25006KT 1/4SM FG VV002 18/17 A2984 RMK AO2 T01830172
KDUJ 241016Z AUTO 24005KT 3/4SM BR OVC002 18/17 A2983 RMK AO2 T01780172
KDUJ 241009Z AUTO 25005KT 1SM BR BKN002 OVC006 18/17 A2983 RMK AO2 T01780172
KDUJ 241001Z AUTO 26007KT 2 1/2SM BR BKN003 OVC006 18/17 A2983 RMK AO2 VIS 1V5 T01780167
KDUJ 240953Z AUTO 25007KT 8SM OVC006 18/17 A2983 RMK AO2 CIG 002V010 SLP086 T01780167
KDUJ 240910Z AUTO 18004KT 10SM BKN009 OVC041 18/16 A2980 RMK AO2 T01780161
KDUJ 240853Z AUTO 00000KT 3SM BR BKN042 BKN060 17/17 A2981 RMK AO2 SLP080 60001 T01720167 53001
KDUJ 240818Z AUTO 15003KT 4SM BR FEW023 BKN060 18/16 A2980 RMK AO2 T01780161
KDUJ 240814Z AUTO 00000KT 1 1/2SM BR FEW022 BKN060 18/17 A2980 RMK AO2 T01780167
KDUJ 240805Z AUTO 00000KT 2SM BR SCT060 17/16 A2980 RMK AO2 T01720161
KDUJ 240759Z AUTO 00000KT 3/4SM BR FEW002 FEW060 17/16 A2979 RMK AO2 T01720161
KDUJ 240755Z AUTO 00000KT 1SM BR VV002 17/16 A2979 RMK AO2 T01720161
KDUJ 240753Z AUTO 00000KT 1 3/4SM BR CLR 18/17 A2979 RMK AO2 SLP073 T01780167
KDUJ 240741Z AUTO 13003KT 10SM FEW120 18/17 A2978 RMK AO2 T01780167
KDUJ 240732Z AUTO 11003KT 2SM BR FEW120 18/17 A2978 RMK AO2 T01780167
KDUJ 240653Z AUTO 24005KT 10SM FEW021 FEW060 BKN120 18/17 A2979 RMK AO2 RAE06 SLP073 P0001 T01830172
KDUJ 240623Z AUTO 26008KT 8SM FEW014 SCT019 BKN110 19/17 A2979 RMK AO2 RAE06 P0000 T01890172
KDUJ 240615Z AUTO 27005KT 9SM SCT014 BKN019 BKN110 19/17 A2979 RMK AO2 RAE06 P0000 T01890172
KDUJ 240600Z AUTO 23004KT 7SM -RA BKN014 BKN019 OVC100 18/17 A2980 RMK AO2 P0000 T01830172
KDUJ 240553Z AUTO 24004KT 6SM -RA BR SCT014 OVC100 18/17 A2980 RMK AO2 SLP077 P0004 60062 T01830172 10233 20178 58000
KDUJ 240453Z AUTO 23004KT 7SM -RA OVC110 18/16 A2980 RMK AO2 RAE38B41 TSE32 SLP077 P0031 T01780161 402780178
KDUJ 240446Z AUTO 23004KT 6SM -RA FEW050 FEW090 OVC110 19/16 A2979 RMK AO2 RAE38B41 TSE32 P0031 T01890156
KDUJ 240438Z AUTO 24005KT 10SM VCTS SCT038 SCT090 OVC110 18/16 A2980 RMK AO2 RAE38 TSE32 P0030 T01830161
KDUJ 240427Z AUTO VRB04KT 3SM -TSRA BKN035 OVC090 19/16 A2979 RMK AO2 P0030 T01890161
KDUJ 240353Z AUTO 23011KT 1 1/4SM +TSRA BR SCT014 BKN031 OVC110 19/18 A2981 RMK AO2 RAB35 TSB24 SLP081 P0012 T01890178
KDUJ 240350Z AUTO 23012KT 1 1/2SM TSRA BR FEW009 BKN014 OVC110 19/18 A2981 RMK AO2 RAB35 TSB24 P0010
KDUJ 240340Z AUTO 25004KT 2 1/2SM -TSRA BR BKN013 BKN110 19/18 A2981 RMK AO2 LTG DSNT W RAB35 TSB24 P0002 T01940183
KDUJ 240330Z AUTO 28005KT 9SM TS FEW017 BKN110 19/18 A2981 RMK AO2 LTG DSNT W TSB24 T01940178
KDUJ 240320Z AUTO 00000KT 10SM VCTS FEW026 SCT110 19/18 A2981 RMK AO2 LTG DSNT W AND NW T01890178
KDUJ 240312Z AUTO 12003KT 10SM FEW024 BKN110 19/17 A2980 RMK AO2 LTG DSNT NW T01890172
KDUJ 240253Z AUTO 12004KT 10SM BKN015 OVC024 19/18 A2980 RMK AO2 RAE32 TSE06 SLP078 P0005 60015 T01940178 51002
KDUJ 240239Z AUTO 12004KT 10SM OVC013 19/17 A2981 RMK AO2 RAE32 TSE06 P0005 T01890172
KDUJ 240212Z AUTO 08004KT 5SM VCTS -RA BR OVC013 20/18 A2981 RMK AO2 LTG DSNT NE TSE06 P0004 T02000178
KDUJ 240153Z AUTO 06007KT 6SM -TSRA BR OVC011 19/17 A2982 RMK AO2 LTG DSNT N AND NE RAB00 TSB22E24 SLP085 P0010 T01940172
KDUJ 240131Z AUTO 02007KT 5SM -TSRA BR OVC013 20/18 A2981 RMK AO2 LTG DSNT NW-NE RAB00 TSB22E24 P0007 T02000178
KDUJ 240117Z AUTO 01008KT 4SM -RA BKN011 BKN048 OVC060 22/18 A2981 RMK AO2 LTG DSNT W-NE RAB00 P0004 T02170183
KDUJ 240111Z AUTO 35006KT 2 1/2SM VCTS -RA FEW013 BKN048 OVC065 22/19 A2981 RMK AO2 LTG DSNT W-NE RAB00 P0004 T02220194
KDUJ 240053Z AUTO 23007KT 9SM VCTS BKN060 BKN075 22/19 A2980 RMK AO2 LTG DSNT NW-NE SLP076 T02220194
KDUJ 240039Z AUTO 23006KT 10SM VCTS SCT027 BKN050 22/19 A2980 RMK AO2 LTG DSNT N AND NW T02220194
KDUJ 240031Z AUTO 22006KT 10SM VCTS BKN027 23/19 A2979 RMK AO2 LTG DSNT W-N T02280194
KDUJ 240024Z AUTO 22007KT 9SM BKN027 23/19 A2978 RMK AO2 LTG DSNT W-N T02280194
KDUJ 232353Z AUTO 21009KT 8SM SCT016 23/20 A2976 RMK AO2 LTG DSNT N AND NW SLP064 T02330200 10278 20233 58004
KDUJ 232253Z AUTO 21006KT 10SM FEW022 FEW029 SCT034 25/20 A2977 RMK AO2 SLP067 T02500200
KDUJ 232153Z AUTO 23007KT 10SM FEW023 FEW028 27/21 A2978 RMK AO2 SLP068 T02670206
KDUJ 232053Z AUTO 23006KT 10SM FEW028 26/21 A2978 RMK AO2 SLP067 T02610206 58015
KDUJ 231953Z AUTO 22009KT 10SM FEW049 27/21 A2980 RMK AO2 LTG DSNT E AND SE SLP075 T02670206
KDUJ 231853Z AUTO 24009KT 10SM FEW028 SCT050 BKN060 26/20 A2981 RMK AO2 LTG DSNT SE SLP079 T02610200
KDUJ 231753Z AUTO 27008G14KT 10SM SCT036 28/19 A2982 RMK AO2 SLP083 T02780194 10278 20217 58003
KDUJ 231653Z AUTO 27011KT 10SM SCT026 BKN034 BKN065 27/20 A2983 RMK AO2 SLP086 T02670200
KDUJ 231553Z AUTO 26010KT 10SM FEW019 BKN048 BKN060 25/19 A2983 RMK AO2 SLP088 T02500194
KDUJ 231453Z AUTO 26009KT 10SM FEW012 SCT017 BKN055 24/21 A2983 RMK AO2 SLP088 T02440206 53001
KDUJ 231449Z AUTO 25010KT 10SM FEW012 BKN017 OVC060 24/21 A2983 RMK AO2
KDUJ 231353Z AUTO 25005KT 6SM BR BKN010 BKN015 OVC025 23/21 A2983 RMK AO2 CIG 007V014 SLP087 T02330211
KDUJ 231339Z AUTO 24006KT 6SM BR SCT009 BKN016 OVC025 23/21 A2983 RMK AO2 T02280206
KDUJ 231310Z AUTO 24006KT 5SM BR BKN008 BKN012 OVC021 22/21 A2983 RMK AO2 CIG 006V009 T02220206
KDUJ 231303Z AUTO 23009KT 4SM BR BKN010 OVC017 22/21 A2983 RMK AO2 CIG 006V013 T02220206
KDUJ 231253Z AUTO 24008KT 4SM BR BKN007 BKN011 BKN024 22/21 A2983 RMK AO2 SLP088 T02220206
KDUJ 231233Z AUTO 26008KT 4SM BR BKN006 BKN009 23/21 A2983 RMK AO2 CIG 004V008 T02280211
KDUJ 231210Z AUTO 24007KT 2 1/2SM BR BKN006 OVC009 22/21 A2983 RMK AO2 CIG 003V009 T02170206
KDUJ 231153Z AUTO 23007KT 2SM BR BKN004 OVC015 22/21 A2982 RMK AO2 CIG 003V007 SLP084 60001 70125 T02170206 10217 20206 53004
KDUJ 231053Z AUTO 24006KT 1 1/2SM BR BKN004 OVC010 22/21 A2982 RMK AO2 RAB05E25 SLP084 P0001 T02170206
KDUJ 231030Z AUTO 23006KT 1 1/2SM BR OVC004 21/20 A2981 RMK AO2 RAB05E25 P0001 T02110200
KDUJ 230953Z AUTO 21004KT 2SM BR OVC004 21/20 A2980 RMK AO2 SLP078 T02110200
KDUJ 230935Z AUTO 00000KT 2 1/2SM BR BKN004 OVC010 21/20 A2980 RMK AO2 T02110200
KDUJ 230924Z AUTO 00000KT 2 1/2SM BR BKN005 OVC010 21/20 A2979 RMK AO2 T02110200
KDUJ 230906Z AUTO 21004KT 1 1/2SM BR SCT002 OVC010 21/20 A2980 RMK AO2 T02110200
KDUJ 230853Z AUTO 21006KT 1/2SM FG BKN002 OVC012 21/20 A2980 RMK AO2 SLP080 T02110200 55000
KDUJ 230802Z AUTO 23003KT 1/4SM FG VV002 21/20 A2980 RMK AO2 T02110200
KDUJ 230753Z AUTO 25003KT 1/2SM FG BKN002 OVC008 21/20 A2980 RMK AO2 SLP077 T02110200
KDUJ 230735Z AUTO 26003KT 2 1/2SM BR BKN002 OVC008 21/20 A2980 RMK AO2 T02060200
KDUJ 230705Z AUTO 25006KT 1 1/2SM BR BKN002 OVC014 21/20 A2981 RMK AO2 T02110200
KDUJ 230653Z AUTO 25006KT 2SM BR OVC002 21/20 A2981 RMK AO2 SLP080 T02110200
KDUJ 230649Z AUTO 25006KT 1 3/4SM BR OVC002 21/20 A2981 RMK AO2
KDUJ 230640Z AUTO 26006KT 2SM BR OVC002 21/20 A2981 RMK AO2 T02110200
KDUJ 230614Z AUTO 25006KT 1 1/4SM BR OVC002 21/20 A2981 RMK AO2 T02110200
KDUJ 230553Z AUTO 26006KT 2 1/2SM BR OVC002 21/20 A2982 RMK AO2 RAB02E11 SLP083 P0000 60010 T02110200 10217 20211 58005
KDUJ 230526Z AUTO 25005KT 2 1/2SM BR OVC003 21/20 A2982 RMK AO2 RAB02E11 P0000 T02110200
KDUJ 230453Z AUTO 27005KT 4SM BR OVC004 21/20 A2982 RMK AO2 RAB04E35 CIG 002V006 SLP085 P0004 T02110200 402390183
KDUJ 230438Z AUTO 26009KT 5SM BR OVC002 21/20 A2982 RMK AO2 RAB04E35 CIG 002V006 P0004 T02110200
KDUJ 230410Z AUTO VRB03KT 2SM -RA BR OVC003 21/20 A2982 RMK AO2 RAB04 CIG 002V006 P0002 T02110200
KDUJ 230353Z AUTO 24003KT 4SM BR OVC002 21/20 A2983 RMK AO2 RAB05E27B38E52 CIG 002V006 SLP086 P0005 T02110200
KDUJ 230350Z AUTO 00000KT 3SM -RA BR OVC002 21/20 A2982 RMK AO2 RAB05E27B38 CIG 002V006 P0005
KDUJ 230339Z AUTO 29003KT 1 3/4SM -RA BR OVC004 21/20 A2982 RMK AO2 RAB05E27B38 P0004 T02110200
KDUJ 230330Z AUTO 32003KT 4SM BR OVC004 21/20 A2982 RMK AO2 RAB05E27 CIG 002V007 P0001 T02110200
KDUJ 230317Z AUTO 00000KT 3SM -RA BR OVC006 21/20 A2982 RMK AO2 RAB05 CIG 003V009 P0001 T02110200
KDUJ 230305Z AUTO 00000KT 1 1/4SM -RA BR OVC007 21/20 A2983 RMK AO2 RAB05 P0001 T02110200
KDUJ 230253Z AUTO 00000KT 3/4SM BR BKN008 OVC012 21/20 A2983 RMK AO2 RAE10 CIG 006V010 SLP087 P0000 60001 T02110200 50001
KDUJ 230249Z AUTO 00000KT 1 1/2SM BR BKN008 OVC012 21/20 A2983 RMK AO2 RAE10 P0000
KDUJ 230240Z AUTO 00000KT 4SM BR BKN008 BKN012 OVC045 21/20 A2983 RMK AO2 RAE10 CIG 007V011 P0000 T02110200